aviador You're here:

OIAW Decoded Metar

AHWAZ in IRAN
Report Time2017-07-21 07:58:00
UTC Time2017-07-21 08:35:06
Flight Rules mvfr MVFR
Wind160° at 06 kt
W.Decomp.*RWY 12: 4.8 kt HW 3.6 kt RCW
W.Rank160° ranks 14
Current wind is below 160° avg. (6.1)
Visibility5000 m
Phenomena:Haze
Clouds:N/A
Expected CloudBase > 6,800 ft AGL from Temp-Dew spread
CeilingNone
Temp45°C (ISA +30)
Dew Point28°C (39% RH)
Heat Index61.9°C
QNH0997 hPa
Density Alt4,452 ft
Elevation72 ft
Report Wrong Elevation
Raw Report
METAR OIAW 210758Z 16006KT 5000 HZ NSC 45/28 Q0997=

Extra information for OIAW:More info

Metar Taf Metar & Taf Last 4 Metars F.Rules Stats Wind Profile Meteogram Temp Stats Airport Information Weather charts Add Link Nearby VenuesMetar ALERT Operation Metar Decoded Social comments